Soldotna, AK

3:03 PM AKST on February 26, 2017 (GMT -0900)
W. Corral PWS | | Change Station

Elev 110 ft 60.49 °N, 151.08 °W | Updated 4 seconds ago

Overcast
Overcast
29.1 °F
Feels Like 29 °F
N
0.7
Wind Variable Wind from North
Gusts 3.1 mph

Today
High -- | Low -- °F
--% Chance of Precip.
Yesterday
High -- | Low -- °F
Precip. -- in
Pressure 30.25 in
Visibility 0.2 miles
Clouds Overcast 200 ft
Windchill 29 °F
Dew Point 29 °F
Humidity 99%
Rainfall 0.00 in
Snow Depth Not available.
8:10 AM 6:24 PM
New Moon, 0% visible
METAR PASX 262356Z AUTO 30003KT 1/4SM OVC002 M03/M09 A3025 RMK AO1 11030 21070 57014
Pressure 30.25 in
Visibility 0.2 miles
Clouds Overcast 200 ft
Windchill 29 °F
Dew Point 29 °F
Humidity 99%
Rainfall 0.00 in
Snow Depth Not available.
8:10 AM 6:24 PM
New Moon, 0% visible
METAR PASX 262356Z AUTO 30003KT 1/4SM OVC002 M03/M09 A3025 RMK AO1 11030 21070 57014

Get Your Daily Forecast Email!

Thanks for signing up!

Be on the lookout for a verification email in your inbox.

You'll start receiving the daily forecast at 8 AM.

×

10-Day Weather Forecast

Almanac

Astronomy

Feb. 26, 2017 Rise Set
Actual Time
Civil Twilight
Nautical Twilight
Astronomical Twilight
Moon
Length of Visible Light
Length of Day
Tomorrow will be .
, % of the Moon is Illuminated

Today's Extremes

State Highs State Lows

Community

WunderPhotos

Upload Photos

1,962,540 photos uploaded!

WunderBlog® & News

Nearby

Air Quality

  Air Quality AQ Index Pollutant
Not available.

Snow Depth

Station Depth Elevation

Earthquake Activity

City Distance Mag. Time & Date
Minimum magnitude displayed is 2.5.

Coastal Water Temperatures

Place Temperature

Stations

Nearby Weather Stations

Station Location Temp. Windchill Dew Point Humidity Wind Precip. Elev Updated Type
                   

Watches & Warnings

There are currently no watches in effect.